Clemons, Iowa
Current Conditions -  °F | °C
As of 11:53 PM on Sunday 19 Oct 2014 (Local Time) from KMIW Reporting Station
Clear Clear  
Wind Chill: 11°   Ceiling: Unl
Heat Index: 11°   Visibility: 10mi
Dew Point:   Wind: 9mph
Humidity: 80%   Direction: 250°WSW
Pressure: 29.88"   Gusts: NA
Location:  42.11°N, 93.16°W
Report Text: KMIW 200453Z AUTO 25008KT 10SM CLR 11/08 A2988 RMK AO2 SLP119 T01110078
Loading
Personal Weather Stations






























Interactive Weather Map
Tropical Storm Tracking
New forecast layout! Learn more

10-Day Weather Forecast

Advertisements
Track Severe Weather on mobile